Time;durP1;ratioP1;P1;durP2;ratioP2;P2;SDS_P1;SDS_P2;PMS_P1;PMS_P2;Temp;Humidity;BMP_temperature;BMP_pressure;BME280_temperature;BME280_humidity;BME280_pressure;Samples;Min_cycle;Max_cycle;Signal;HPM_P1;HPM_P2
2022/11/05 00:09:28;;;;;;;5.60;4.87;;;13.20;99.90;;;;;;4977884;28;20465;-71
2022/11/05 00:17:47;;;;;;;4.70;4.10;;;13.10;99.90;;;;;;4986370;28;20932;-71
2022/11/05 00:20:13;;;;;;;5.63;4.60;;;13.10;99.90;;;;;;4978691;28;20468;-71
2022/11/05 00:25:29;;;;;;;4.73;4.23;;;13.10;99.90;;;;;;5012937;28;20449;-71
2022/11/05 00:28:01;;;;;;;5.73;4.53;;;13.10;99.90;;;;;;4991100;28;20434;-71
2022/11/05 00:30:34;;;;;;;4.77;4.37;;;13.10;99.90;;;;;;4977984;28;20521;-71
2022/11/05 00:33:03;;;;;;;8.37;4.73;;;13.00;99.90;;;;;;4974811;28;20944;-71
2022/11/05 00:35:29;;;;;;;4.30;3.83;;;13.10;99.90;;;;;;5012997;28;20425;-71
2022/11/05 00:37:59;;;;;;;4.27;3.87;;;13.10;99.90;;;;;;4992326;28;20442;-71
2022/11/05 00:40:25;;;;;;;4.97;4.17;;;13.10;99.90;;;;;;5006511;28;20481;-71
2022/11/05 00:45:39;;;;;;;7.47;4.80;;;13.10;99.90;;;;;;5014437;28;20921;-71
2022/11/05 00:50:54;;;;;;;7.70;4.50;;;13.00;99.90;;;;;;5010319;28;20430;-71
2022/11/05 00:53:23;;;;;;;6.40;5.10;;;13.00;99.90;;;;;;4964165;28;20425;-71
2022/11/05 00:55:52;;;;;;;6.77;3.90;;;13.00;99.90;;;;;;4996539;28;20437;-71
2022/11/05 00:58:21;;;;;;;5.23;3.90;;;13.00;99.90;;;;;;5013336;28;20466;-70
2022/11/05 01:00:52;;;;;;;4.50;4.10;;;13.00;99.90;;;;;;4961774;28;20680;-71
2022/11/05 01:03:22;;;;;;;4.70;4.23;;;13.00;99.90;;;;;;4961612;28;20436;-71
2022/11/05 01:06:07;;;;;;;4.40;3.83;;;13.00;99.90;;;;;;4997196;28;20429;-71
2022/11/05 01:08:33;;;;;;;4.93;4.20;;;13.00;99.90;;;;;;4963405;28;20887;-71
2022/11/05 01:11:31;;;;;;;5.60;4.07;;;13.00;99.90;;;;;;4995185;28;20463;-71
2022/11/05 01:14:11;;;;;;;4.67;3.80;;;12.90;99.90;;;;;;5007836;28;20462;-71
2022/11/05 01:16:40;;;;;;;6.37;4.10;;;12.90;99.90;;;;;;4994270;28;20398;-71
2022/11/05 01:19:11;;;;;;;5.93;4.23;;;12.90;99.90;;;;;;4994985;28;20860;-71
2022/11/05 01:21:39;;;;;;;5.43;4.47;;;12.90;99.90;;;;;;4976704;28;20408;-71
2022/11/05 01:24:06;;;;;;;7.50;4.13;;;12.90;99.90;;;;;;4977873;28;20993;-71
2022/11/05 01:26:34;;;;;;;4.70;3.73;;;12.90;99.90;;;;;;4960835;28;20470;-71
2022/11/05 01:29:00;;;;;;;5.47;4.00;;;12.90;99.90;;;;;;4970986;28;20812;-71
2022/11/05 01:31:27;;;;;;;5.83;3.97;;;12.90;99.90;;;;;;4978130;28;20177;-71
2022/11/05 01:33:55;;;;;;;4.60;3.93;;;12.90;99.90;;;;;;4986716;28;20432;-71
2022/11/05 01:36:24;;;;;;;8.80;4.50;;;12.90;99.90;;;;;;4976557;28;20480;-71
2022/11/05 01:38:52;;;;;;;5.77;4.70;;;12.90;99.90;;;;;;4995821;28;20456;-71
2022/11/05 01:41:18;;;;;;;5.53;4.30;;;12.80;99.90;;;;;;4995859;28;20418;-71
2022/11/05 01:43:58;;;;;;;6.70;4.60;;;12.80;99.90;;;;;;5001464;28;20484;-70
2022/11/05 01:46:40;;;;;;;6.80;4.57;;;12.80;99.90;;;;;;4979539;28;20800;-71
2022/11/05 01:49:30;;;;;;;7.00;4.97;;;12.80;99.90;;;;;;4976090;28;20862;-71
2022/11/05 01:51:58;;;;;;;6.63;5.13;;;12.80;99.90;;;;;;4977573;28;20437;-71
2022/11/05 01:54:30;;;;;;;5.30;4.13;;;12.80;99.90;;;;;;4970126;28;20784;-71
2022/11/05 01:57:04;;;;;;;6.77;5.20;;;12.80;99.90;;;;;;4976544;28;20608;-71
2022/11/05 01:59:44;;;;;;;6.93;4.40;;;12.80;99.90;;;;;;4984038;28;20519;-73
2022/11/05 02:02:11;;;;;;;5.63;3.93;;;12.80;99.90;;;;;;4995505;28;20413;-74
2022/11/05 02:04:52;;;;;;;7.87;4.73;;;12.80;99.90;;;;;;4977676;28;20455;-74
2022/11/05 02:07:25;;;;;;;8.30;4.90;;;12.70;99.90;;;;;;4984696;28;20442;-74
2022/11/05 02:10:16;;;;;;;5.37;4.73;;;12.70;99.90;;;;;;4995661;28;20446;-75
2022/11/05 02:12:45;;;;;;;7.30;4.40;;;12.70;99.90;;;;;;4991362;28;20456;-73
2022/11/05 02:15:13;;;;;;;5.70;4.73;;;12.70;99.90;;;;;;4960084;28;20428;-72
2022/11/05 02:17:50;;;;;;;7.63;4.70;;;12.70;99.90;;;;;;4989706;28;20430;-72
2022/11/05 02:20:40;;;;;;;6.30;3.90;;;12.70;99.90;;;;;;4995372;28;20995;-73
2022/11/05 02:23:27;;;;;;;6.80;4.60;;;12.70;99.90;;;;;;4967186;28;20436;-72
2022/11/05 02:26:15;;;;;;;6.13;4.93;;;12.70;99.90;;;;;;5012311;28;20458;-72
2022/11/05 02:28:56;;;;;;;7.70;5.00;;;12.70;99.90;;;;;;4994765;28;20452;-72
2022/11/05 02:31:51;;;;;;;7.30;5.07;;;12.70;99.90;;;;;;4994964;28;20424;-72
2022/11/05 02:34:50;;;;;;;5.00;4.20;;;12.70;99.90;;;;;;4989681;28;20569;-73
2022/11/05 02:37:33;;;;;;;7.63;4.30;;;12.70;99.90;;;;;;4990588;28;20426;-73
2022/11/05 02:40:17;;;;;;;7.87;3.80;;;12.70;99.90;;;;;;5012388;28;20474;-73
2022/11/05 02:43:04;;;;;;;6.27;4.47;;;12.70;99.90;;;;;;4977865;28;20492;-72
2022/11/05 02:45:57;;;;;;;5.13;4.17;;;12.70;99.90;;;;;;4974173;28;20491;-72
2022/11/05 02:48:43;;;;;;;5.70;4.23;;;12.60;99.90;;;;;;4960687;28;20458;-73
2022/11/05 02:51:14;;;;;;;7.00;4.43;;;12.60;99.90;;;;;;4975691;28;20523;-73
2022/11/05 02:54:10;;;;;;;4.77;4.27;;;12.60;99.90;;;;;;4975779;28;20429;-72
2022/11/05 02:56:40;;;;;;;6.13;4.53;;;12.60;99.90;;;;;;5004964;28;20481;-73
2022/11/05 02:59:09;;;;;;;5.93;4.10;;;12.60;99.90;;;;;;5011388;28;20469;-72
2022/11/05 03:01:42;;;;;;;6.23;4.50;;;12.60;99.90;;;;;;4994836;28;20460;-73
2022/11/05 03:04:15;;;;;;;6.97;4.60;;;12.60;99.90;;;;;;4999244;28;20945;-72
2022/11/05 03:06:49;;;;;;;4.70;3.90;;;12.60;99.90;;;;;;5009978;28;20431;-72
2022/11/05 03:09:39;;;;;;;5.97;4.20;;;12.60;99.90;;;;;;4998854;28;20524;-73
2022/11/05 03:12:20;;;;;;;5.47;4.10;;;12.60;99.90;;;;;;4959764;28;20913;-72
2022/11/05 03:15:09;;;;;;;5.43;4.43;;;12.60;99.90;;;;;;4974551;28;20801;-72
2022/11/05 03:18:12;;;;;;;5.97;4.07;;;12.60;99.90;;;;;;4975522;28;20439;-72
2022/11/05 03:20:50;;;;;;;5.97;3.67;;;12.60;99.90;;;;;;4975144;28;20479;-72
2022/11/05 03:23:41;;;;;;;4.90;3.87;;;12.60;99.90;;;;;;4960813;28;20438;-72
2022/11/05 03:26:28;;;;;;;5.93;4.27;;;12.60;99.90;;;;;;4971012;28;20448;-72
2022/11/05 03:29:16;;;;;;;5.07;4.20;;;12.60;99.90;;;;;;5010130;28;20453;-72
2022/11/05 03:31:47;;;;;;;4.30;3.70;;;12.60;99.90;;;;;;4993591;28;20538;-73
2022/11/05 03:34:25;;;;;;;5.20;3.80;;;12.60;99.90;;;;;;4995977;28;20508;-71
2022/11/05 03:36:54;;;;;;;5.60;3.97;;;12.60;99.90;;;;;;4980075;28;20942;-72
2022/11/05 03:39:31;;;;;;;6.50;3.97;;;12.60;99.90;;;;;;4967537;28;20465;-72
2022/11/05 03:42:07;;;;;;;5.57;3.77;;;12.60;99.90;;;;;;4984449;28;20525;-73
2022/11/05 03:44:38;;;;;;;5.30;3.73;;;12.60;99.90;;;;;;4998539;28;20436;-72
2022/11/05 03:47:19;;;;;;;4.97;3.50;;;12.60;99.90;;;;;;4995957;28;20416;-72
2022/11/05 03:50:22;;;;;;;5.10;4.20;;;12.60;99.90;;;;;;5007436;28;20960;-72
2022/11/05 03:52:58;;;;;;;4.83;4.33;;;12.60;99.90;;;;;;4988755;28;20440;-72
2022/11/05 03:55:35;;;;;;;4.43;4.03;;;12.50;99.90;;;;;;4993465;28;20447;-72
2022/11/05 03:58:04;;;;;;;7.40;4.20;;;12.50;99.90;;;;;;4992401;28;20435;-71
2022/11/05 04:00:34;;;;;;;7.93;4.50;;;12.50;99.90;;;;;;4993091;28;20465;-72
2022/11/05 04:03:02;;;;;;;8.50;4.17;;;12.50;99.90;;;;;;4979209;28;20427;-71
2022/11/05 04:05:28;;;;;;;6.13;4.30;;;12.50;99.90;;;;;;5011578;28;20417;-72
2022/11/05 04:13:33;;;;;;;5.17;4.40;;;12.50;99.90;;;;;;4980273;28;20527;-71
2022/11/05 04:18:52;;;;;;;6.80;4.50;;;12.50;99.90;;;;;;5013154;28;20472;-72
2022/11/05 04:24:08;;;;;;;6.60;4.40;;;12.50;99.90;;;;;;5005801;28;20446;-71
2022/11/05 04:26:44;;;;;;;5.63;4.47;;;12.50;99.90;;;;;;4966868;28;20436;-71
2022/11/05 04:31:55;;;;;;;6.47;5.10;;;12.40;99.90;;;;;;4982017;28;20442;-72
2022/11/05 04:34:22;;;;;;;7.27;4.43;;;12.40;99.90;;;;;;4985962;28;20447;-72
2022/11/05 04:36:50;;;;;;;7.60;4.90;;;12.40;99.90;;;;;;4997131;28;20431;-71
2022/11/05 04:39:23;;;;;;;5.80;4.43;;;12.40;99.90;;;;;;4973531;28;20487;-71
2022/11/05 04:41:55;;;;;;;5.17;4.23;;;12.40;99.90;;;;;;4977983;28;20413;-71
2022/11/05 04:44:21;;;;;;;6.13;4.63;;;12.40;99.90;;;;;;4985578;28;20446;-71
2022/11/05 04:46:50;;;;;;;6.60;4.30;;;12.40;99.90;;;;;;4980509;28;20457;-71
2022/11/05 04:49:19;;;;;;;4.23;3.83;;;12.40;99.90;;;;;;4977966;28;20461;-71
2022/11/05 04:51:45;;;;;;;6.20;4.70;;;12.40;99.90;;;;;;4977522;28;20447;-71
2022/11/05 04:54:13;;;;;;;5.27;4.40;;;12.40;99.90;;;;;;4978966;28;20517;-72
2022/11/05 04:56:44;;;;;;;6.07;4.37;;;12.40;99.90;;;;;;4993107;28;20447;-71
2022/11/05 04:59:12;;;;;;;5.33;4.20;;;12.40;99.90;;;;;;5012752;28;20485;-71
2022/11/05 05:01:41;;;;;;;6.50;4.07;;;12.30;99.90;;;;;;4980825;28;20527;-71
2022/11/05 05:04:12;;;;;;;5.40;4.00;;;12.40;99.90;;;;;;4995204;28;20503;-70
2022/11/05 05:06:38;;;;;;;5.27;3.97;;;12.30;99.90;;;;;;4982277;28;20450;-71
2022/11/05 05:09:04;;;;;;;5.87;4.30;;;12.30;99.90;;;;;;4992332;28;20465;-71
2022/11/05 05:11:30;;;;;;;9.60;5.40;;;12.30;99.90;;;;;;5014085;28;20423;-72
2022/11/05 05:13:56;;;;;;;4.57;4.13;;;12.30;99.90;;;;;;4978394;28;20453;-71
2022/11/05 05:16:25;;;;;;;6.13;3.97;;;12.30;99.90;;;;;;4989407;28;20492;-72
2022/11/05 05:18:51;;;;;;;5.33;4.40;;;12.30;99.90;;;;;;5008342;28;20824;-71
2022/11/05 05:21:39;;;;;;;4.47;3.60;;;12.30;99.90;;;;;;4977327;28;20425;-72
2022/11/05 05:24:08;;;;;;;12.67;4.53;;;12.30;99.90;;;;;;4983340;28;20417;-72
2022/11/05 05:26:39;;;;;;;5.37;4.40;;;12.30;99.90;;;;;;4982671;28;20417;-71
2022/11/05 05:29:06;;;;;;;5.93;4.30;;;12.30;99.90;;;;;;4965789;28;20464;-71
2022/11/05 05:31:32;;;;;;;5.10;4.07;;;12.30;99.90;;;;;;4980019;28;20444;-71
2022/11/05 05:33:58;;;;;;;7.10;4.67;;;12.30;99.90;;;;;;5013306;28;20448;-71
2022/11/05 05:36:25;;;;;;;7.67;3.97;;;12.30;99.90;;;;;;5011675;28;20454;-72
2022/11/05 05:38:55;;;;;;;4.87;3.90;;;12.30;99.90;;;;;;5008924;28;20993;-71
2022/11/05 05:41:25;;;;;;;8.13;4.33;;;12.20;99.90;;;;;;5000201;28;20439;-71
2022/11/05 05:43:51;;;;;;;4.63;3.90;;;12.20;99.90;;;;;;4980077;28;20426;-71
2022/11/05 05:46:20;;;;;;;4.93;4.40;;;12.30;99.90;;;;;;4980760;28;20434;-71
2022/11/05 05:48:51;;;;;;;5.03;3.90;;;12.20;99.90;;;;;;4996986;28;20445;-71
2022/11/05 05:51:17;;;;;;;4.70;4.20;;;12.20;99.90;;;;;;4996031;28;20413;-72
2022/11/05 05:53:46;;;;;;;4.37;3.87;;;12.20;99.90;;;;;;4977976;28;20427;-72
2022/11/05 05:56:18;;;;;;;5.20;4.10;;;12.20;99.90;;;;;;4968381;28;20958;-71
2022/11/05 05:58:44;;;;;;;5.77;4.37;;;12.20;99.90;;;;;;5011328;28;20515;-71
2022/11/05 06:01:16;;;;;;;5.80;4.00;;;12.20;99.90;;;;;;5012944;28;20762;-71
2022/11/05 06:03:44;;;;;;;6.10;4.47;;;12.20;99.90;;;;;;4995855;28;20488;-72
2022/11/05 06:06:12;;;;;;;5.23;3.87;;;12.20;99.90;;;;;;4995059;28;20480;-72
2022/11/05 06:08:38;;;;;;;5.90;5.03;;;12.20;99.90;;;;;;4973189;28;20445;-71
2022/11/05 06:11:05;;;;;;;6.07;4.63;;;12.20;99.90;;;;;;4975961;28;20933;-72
2022/11/05 06:13:32;;;;;;;4.67;4.17;;;12.20;99.90;;;;;;4977301;28;20431;-72
2022/11/05 06:16:10;;;;;;;5.70;4.23;;;12.20;99.90;;;;;;4992650;28;20430;-72
2022/11/05 06:18:36;;;;;;;6.30;5.10;;;12.20;99.90;;;;;;4988233;28;20444;-74
2022/11/05 06:21:11;;;;;;;5.73;4.57;;;12.20;99.90;;;;;;4960083;28;20835;-75
2022/11/05 06:23:41;;;;;;;6.47;5.13;;;12.10;99.90;;;;;;5000210;28;20456;-74
2022/11/05 06:26:11;;;;;;;6.00;4.40;;;12.10;99.90;;;;;;4996062;28;20491;-74
2022/11/05 06:28:37;;;;;;;4.43;3.73;;;12.10;99.90;;;;;;4993738;28;20970;-75
2022/11/05 06:31:13;;;;;;;7.00;5.10;;;12.10;99.90;;;;;;4976166;28;20436;-74
2022/11/05 06:33:40;;;;;;;6.50;4.53;;;12.10;99.90;;;;;;4982768;28;20810;-75
2022/11/05 06:36:07;;;;;;;5.03;4.47;;;12.10;99.90;;;;;;4994896;28;20520;-75
2022/11/05 06:38:35;;;;;;;5.50;4.60;;;12.10;99.90;;;;;;4988348;28;20515;-74
2022/11/05 06:41:04;;;;;;;5.50;4.90;;;12.10;99.90;;;;;;4960183;28;20542;-75
2022/11/05 06:43:30;;;;;;;7.20;4.80;;;12.10;99.90;;;;;;4981449;28;20502;-74
2022/11/05 06:45:56;;;;;;;5.90;5.30;;;12.10;99.90;;;;;;4994758;28;20445;-74
2022/11/05 06:48:25;;;;;;;7.47;4.90;;;12.10;99.90;;;;;;4989516;28;20515;-75
2022/11/05 06:50:51;;;;;;;7.63;5.60;;;12.10;99.90;;;;;;4959757;28;20414;-75
2022/11/05 06:53:17;;;;;;;6.93;4.97;;;12.10;99.90;;;;;;4996643;28;20507;-75
2022/11/05 06:55:43;;;;;;;8.90;5.03;;;12.10;99.90;;;;;;4978425;28;20431;-75
2022/11/05 06:58:12;;;;;;;9.20;5.53;;;12.00;99.90;;;;;;4993538;28;20516;-75
2022/11/05 07:00:41;;;;;;;8.10;5.43;;;12.00;99.90;;;;;;5011598;28;21047;-76
2022/11/05 07:03:10;;;;;;;9.70;5.60;;;12.00;99.90;;;;;;4992533;28;20456;-75
2022/11/05 07:05:40;;;;;;;7.10;4.67;;;12.00;99.90;;;;;;4975952;28;20927;-74
2022/11/05 07:08:06;;;;;;;9.77;5.50;;;12.00;99.90;;;;;;4968401;28;20435;-74
2022/11/05 07:10:35;;;;;;;6.00;5.00;;;12.00;99.90;;;;;;4978699;28;20473;-74
2022/11/05 07:13:01;;;;;;;5.57;4.97;;;12.00;99.90;;;;;;5001995;28;20433;-75
2022/11/05 07:15:29;;;;;;;8.60;5.80;;;12.00;99.90;;;;;;4992579;28;20438;-75
2022/11/05 07:17:59;;;;;;;6.47;5.10;;;12.00;99.90;;;;;;4960889;28;20774;-75
2022/11/05 07:20:26;;;;;;;7.70;5.40;;;12.00;99.90;;;;;;4992565;28;20450;-75
2022/11/05 07:23:06;;;;;;;6.67;5.03;;;12.00;99.90;;;;;;4960350;28;21042;-74
2022/11/05 07:25:37;;;;;;;10.07;5.40;;;12.00;99.90;;;;;;4976012;28;20472;-75
2022/11/05 07:28:05;;;;;;;6.73;4.80;;;11.90;99.90;;;;;;4992645;28;20476;-75
2022/11/05 07:30:33;;;;;;;5.47;4.80;;;11.90;99.90;;;;;;5011295;28;20498;-75
2022/11/05 07:33:02;;;;;;;5.63;5.03;;;12.00;99.90;;;;;;4985186;28;20477;-75
2022/11/05 07:35:30;;;;;;;8.73;5.57;;;12.00;99.90;;;;;;4994951;28;20409;-74
2022/11/05 07:37:56;;;;;;;7.80;5.03;;;11.90;99.90;;;;;;4977513;28;20518;-74
2022/11/05 07:40:25;;;;;;;6.57;5.23;;;11.90;99.90;;;;;;4994364;28;20460;-75
2022/11/05 07:42:59;;;;;;;6.50;4.67;;;12.00;99.90;;;;;;4987241;28;20933;-74
2022/11/05 07:45:29;;;;;;;6.17;5.07;;;11.90;99.90;;;;;;4992723;28;20914;-75
2022/11/05 07:48:00;;;;;;;6.50;4.80;;;11.90;99.90;;;;;;5000848;28;20509;-75
2022/11/05 07:50:34;;;;;;;7.30;5.00;;;11.90;99.90;;;;;;4994533;28;20427;-75
2022/11/05 07:53:11;;;;;;;6.90;5.03;;;11.90;99.90;;;;;;4977955;28;21258;-74
2022/11/05 07:55:41;;;;;;;7.13;4.70;;;11.90;99.90;;;;;;4992395;28;20955;-75
2022/11/05 07:58:08;;;;;;;6.53;4.20;;;11.90;99.90;;;;;;4970752;28;20567;-75
2022/11/05 08:00:35;;;;;;;8.40;5.20;;;11.90;99.90;;;;;;5011277;28;20454;-75
2022/11/05 08:03:12;;;;;;;7.83;5.20;;;11.90;99.90;;;;;;4987463;28;20428;-75
2022/11/05 08:05:43;;;;;;;5.53;4.40;;;11.90;99.90;;;;;;4978615;28;20417;-75
2022/11/05 08:08:23;;;;;;;7.77;5.37;;;11.90;99.90;;;;;;4983953;28;20453;-74
2022/11/05 08:10:51;;;;;;;5.00;4.10;;;11.90;99.90;;;;;;4958949;28;20471;-75
2022/11/05 08:13:17;;;;;;;6.30;4.50;;;11.90;99.90;;;;;;4960224;28;20442;-75
2022/11/05 08:15:43;;;;;;;5.57;3.80;;;11.90;99.90;;;;;;4974813;28;20829;-75
2022/11/05 08:18:16;;;;;;;8.70;4.90;;;11.90;99.90;;;;;;4959418;28;20819;-75
2022/11/05 08:20:44;;;;;;;7.10;4.23;;;11.90;99.90;;;;;;4976862;28;20818;-75
2022/11/05 08:23:12;;;;;;;7.73;5.40;;;11.90;99.90;;;;;;5006185;28;20431;-74
2022/11/05 08:25:39;;;;;;;5.77;4.13;;;11.90;99.90;;;;;;4978665;28;20425;-72
2022/11/05 08:28:10;;;;;;;6.43;4.07;;;11.90;99.90;;;;;;4979341;28;20464;-74
2022/11/05 08:30:39;;;;;;;5.53;3.90;;;11.90;99.90;;;;;;5003711;28;20429;-75
2022/11/05 08:33:08;;;;;;;6.13;4.33;;;11.90;99.90;;;;;;5013152;28;20424;-74
2022/11/05 08:35:35;;;;;;;7.53;4.80;;;11.90;99.90;;;;;;4988990;28;20508;-75
2022/11/05 08:38:03;;;;;;;6.70;4.03;;;11.90;99.90;;;;;;4995976;28;20514;-74
2022/11/05 08:40:31;;;;;;;6.23;4.30;;;11.90;99.90;;;;;;4973274;28;20562;-76
2022/11/05 08:43:02;;;;;;;4.50;3.80;;;11.90;99.90;;;;;;5012730;28;20419;-75
2022/11/05 08:45:29;;;;;;;6.00;3.80;;;11.90;99.90;;;;;;4979176;28;20414;-74
2022/11/05 08:48:08;;;;;;;4.93;4.00;;;11.90;99.90;;;;;;4991554;28;20410;-72
2022/11/05 08:50:35;;;;;;;6.13;4.20;;;11.90;99.90;;;;;;4975592;28;21219;-72
2022/11/05 08:53:07;;;;;;;5.20;3.80;;;11.90;99.90;;;;;;4996023;28;20425;-72
2022/11/05 08:55:38;;;;;;;4.47;4.00;;;11.90;99.90;;;;;;4995034;28;20482;-71
2022/11/05 08:58:16;;;;;;;5.93;4.10;;;11.90;99.90;;;;;;4988954;28;20495;-71
2022/11/05 09:00:47;;;;;;;7.50;4.20;;;11.90;99.90;;;;;;4994488;28;20556;-72
2022/11/05 09:03:31;;;;;;;6.60;4.40;;;11.90;99.90;;;;;;4985598;28;20946;-72
2022/11/05 09:05:57;;;;;;;6.87;4.80;;;11.90;99.90;;;;;;4974802;28;20446;-72
2022/11/05 09:08:23;;;;;;;6.60;3.83;;;11.90;99.90;;;;;;4987059;28;20445;-72
2022/11/05 09:10:54;;;;;;;8.50;4.37;;;11.90;99.90;;;;;;4978779;28;20410;-72
2022/11/05 09:13:22;;;;;;;6.70;3.83;;;11.90;99.90;;;;;;4976944;28;20485;-72
2022/11/05 09:15:51;;;;;;;5.10;4.07;;;11.90;99.90;;;;;;4992910;28;20914;-72
2022/11/05 09:18:21;;;;;;;6.70;4.73;;;11.90;99.90;;;;;;4993811;28;20471;-72
2022/11/05 09:20:49;;;;;;;5.00;3.87;;;11.90;99.90;;;;;;4976001;28;20517;-73
2022/11/05 09:23:19;;;;;;;4.67;3.93;;;11.90;99.90;;;;;;5011461;28;20438;-74
2022/11/05 09:25:48;;;;;;;7.23;4.00;;;12.00;99.90;;;;;;5008239;28;20674;-74
2022/11/05 09:28:16;;;;;;;5.63;3.70;;;11.90;99.90;;;;;;4961820;28;20452;-74
2022/11/05 09:30:47;;;;;;;6.40;4.30;;;11.90;99.90;;;;;;5002855;28;20812;-74
2022/11/05 09:33:16;;;;;;;6.57;3.77;;;11.90;99.90;;;;;;4976848;28;20462;-74
2022/11/05 09:35:42;;;;;;;6.83;3.90;;;12.00;99.90;;;;;;5007761;28;20418;-74
2022/11/05 09:38:13;;;;;;;5.83;4.60;;;12.00;99.90;;;;;;4978810;28;20569;-71
2022/11/05 09:40:47;;;;;;;5.40;3.97;;;12.00;99.90;;;;;;4978434;28;20994;-74
2022/11/05 09:43:20;;;;;;;6.00;4.00;;;12.00;99.90;;;;;;4963661;28;20826;-74
2022/11/05 09:45:52;;;;;;;5.70;3.63;;;12.00;99.90;;;;;;4993189;28;20483;-74
2022/11/05 09:48:26;;;;;;;5.50;3.63;;;12.00;99.90;;;;;;4992959;28;20429;-76
2022/11/05 09:50:59;;;;;;;4.63;3.47;;;12.00;99.90;;;;;;4994479;28;20405;-74
2022/11/05 09:53:28;;;;;;;5.80;3.90;;;12.00;99.90;;;;;;4993638;28;20444;-71
2022/11/05 09:55:57;;;;;;;5.73;4.33;;;12.00;99.90;;;;;;5012042;28;20431;-72
2022/11/05 09:58:29;;;;;;;7.40;4.30;;;12.00;99.90;;;;;;4980235;28;20541;-73
2022/11/05 10:00:58;;;;;;;6.07;4.07;;;12.00;99.90;;;;;;4995888;28;20481;-73
2022/11/05 10:03:29;;;;;;;4.90;3.93;;;12.00;99.90;;;;;;4964215;28;20421;-74
2022/11/05 10:06:04;;;;;;;8.90;4.53;;;12.00;99.90;;;;;;5013600;28;20408;-74
2022/11/05 10:08:40;;;;;;;7.30;4.30;;;12.00;99.90;;;;;;4995991;28;20479;-74
2022/11/05 10:11:15;;;;;;;7.63;4.03;;;12.00;99.90;;;;;;4980779;28;20427;-75
2022/11/05 10:13:51;;;;;;;4.93;3.97;;;12.00;99.90;;;;;;5013275;28;20454;-73
2022/11/05 10:16:38;;;;;;;6.53;4.07;;;12.00;99.90;;;;;;5010035;28;20438;-74
2022/11/05 10:19:11;;;;;;;4.27;3.70;;;12.00;99.90;;;;;;4974260;28;21047;-74
2022/11/05 10:21:37;;;;;;;4.53;3.60;;;12.00;99.90;;;;;;4987703;28;20500;-74
2022/11/05 10:24:19;;;;;;;4.93;3.40;;;12.10;99.90;;;;;;4979664;28;20424;-74
2022/11/05 10:26:54;;;;;;;5.07;3.57;;;12.10;99.90;;;;;;4979742;28;20458;-74
2022/11/05 10:29:38;;;;;;;7.70;3.97;;;12.10;99.90;;;;;;4978505;28;20455;-73
2022/11/05 10:32:07;;;;;;;4.13;3.27;;;12.10;99.90;;;;;;4962724;28;20432;-73
2022/11/05 10:34:40;;;;;;;4.73;3.10;;;12.10;99.90;;;;;;4975540;28;20443;-73
2022/11/05 10:37:07;;;;;;;5.50;3.90;;;12.10;99.90;;;;;;4982742;28;20446;-71
2022/11/05 10:39:34;;;;;;;4.40;3.30;;;12.10;99.90;;;;;;4993196;28;20996;-75
2022/11/05 10:42:24;;;;;;;6.23;3.77;;;12.10;99.90;;;;;;4990713;28;20420;-71
2022/11/05 10:45:19;;;;;;;8.53;3.80;;;12.10;99.90;;;;;;5013568;28;20483;-73
2022/11/05 10:48:02;;;;;;;5.33;3.50;;;12.10;99.90;;;;;;4924229;28;20520;-72
2022/11/05 10:50:34;;;;;;;6.00;3.30;;;12.10;99.90;;;;;;4993799;28;20416;-72
2022/11/05 10:53:11;;;;;;;4.47;3.23;;;12.10;99.90;;;;;;4976273;28;20513;-72
2022/11/05 10:55:50;;;;;;;6.57;4.17;;;12.10;99.90;;;;;;4982932;28;20443;-73
2022/11/05 10:58:16;;;;;;;5.70;3.80;;;12.10;99.90;;;;;;4962614;28;20457;-72
2022/11/05 11:01:02;;;;;;;5.40;3.30;;;12.20;99.90;;;;;;4993524;28;20467;-72
2022/11/05 11:03:44;;;;;;;7.07;2.77;;;12.20;99.90;;;;;;4991452;28;20455;-73
2022/11/05 11:06:24;;;;;;;9.33;3.60;;;12.20;99.90;;;;;;4993298;28;20426;-73
2022/11/05 11:08:55;;;;;;;5.83;3.33;;;12.20;99.90;;;;;;4985808;28;20450;-72
2022/11/05 11:11:41;;;;;;;6.13;3.23;;;12.20;99.90;;;;;;4972431;28;20454;-73
2022/11/05 11:14:14;;;;;;;5.40;3.60;;;12.20;99.90;;;;;;4999314;28;20925;-72
2022/11/05 11:16:56;;;;;;;5.30;3.13;;;12.10;99.90;;;;;;4993093;28;20462;-72
2022/11/05 11:19:29;;;;;;;4.40;3.23;;;12.10;99.90;;;;;;4975480;28;20873;-72
2022/11/05 11:22:12;;;;;;;5.70;4.00;;;12.10;99.90;;;;;;4986260;28;20442;-72
2022/11/05 11:24:49;;;;;;;6.13;3.63;;;12.10;99.90;;;;;;4995375;28;20416;-72
2022/11/05 11:27:28;;;;;;;6.23;3.63;;;12.10;99.90;;;;;;4980672;28;20491;-72
2022/11/05 11:29:59;;;;;;;6.63;3.50;;;12.10;99.90;;;;;;4987870;28;20472;-73
2022/11/05 11:32:38;;;;;;;7.33;3.43;;;12.10;99.90;;;;;;5012057;28;20428;-73
2022/11/05 11:35:07;;;;;;;4.63;2.93;;;12.10;99.90;;;;;;5011634;28;20433;-72
2022/11/05 11:37:40;;;;;;;6.73;3.73;;;12.10;99.90;;;;;;5012804;28;20489;-73
2022/11/05 11:40:20;;;;;;;4.83;2.90;;;12.10;99.90;;;;;;5011974;28;20840;-73
2022/11/05 11:42:56;;;;;;;4.23;3.13;;;12.10;99.90;;;;;;4995042;28;20485;-72
2022/11/05 11:45:43;;;;;;;5.37;3.37;;;12.10;99.90;;;;;;5012642;28;20861;-73
2022/11/05 11:48:16;;;;;;;4.83;3.17;;;12.10;99.90;;;;;;4978769;28;20462;-72
2022/11/05 11:50:47;;;;;;;5.40;3.13;;;12.10;99.90;;;;;;4995206;28;20780;-73
2022/11/05 11:53:25;;;;;;;4.80;3.27;;;12.10;99.90;;;;;;4975538;28;20781;-72
2022/11/05 11:55:54;;;;;;;8.10;3.20;;;12.20;99.90;;;;;;4994962;28;20461;-72
2022/11/05 11:58:21;;;;;;;7.17;3.60;;;12.20;99.90;;;;;;4982347;28;20512;-72
2022/11/05 12:01:17;;;;;;;5.30;3.47;;;12.20;99.90;;;;;;5015976;28;20905;-72
2022/11/05 12:03:50;;;;;;;3.30;3.00;;;12.20;99.90;;;;;;4930925;28;20507;-73
2022/11/05 12:06:36;;;;;;;6.60;3.43;;;12.20;99.90;;;;;;4998715;28;20513;-73
2022/11/05 12:09:16;;;;;;;4.97;3.50;;;12.20;99.90;;;;;;4987339;28;20474;-73
2022/11/05 12:11:57;;;;;;;3.90;3.00;;;12.30;99.90;;;;;;4989197;28;20425;-73
2022/11/05 12:14:36;;;;;;;5.10;2.80;;;12.30;99.90;;;;;;5010688;28;20425;-73
2022/11/05 12:17:15;;;;;;;4.20;2.60;;;12.30;99.90;;;;;;4998618;28;20419;-72
2022/11/05 12:20:09;;;;;;;6.40;3.03;;;12.30;99.90;;;;;;4998228;28;20483;-72
2022/11/05 12:22:56;;;;;;;6.93;3.30;;;12.40;99.90;;;;;;4956275;28;20845;-73
2022/11/05 12:25:41;;;;;;;7.40;3.83;;;12.40;99.90;;;;;;4978986;28;20785;-72
2022/11/05 12:28:26;;;;;;;3.60;3.00;;;12.40;99.90;;;;;;4987706;28;20460;-72
2022/11/05 12:31:20;;;;;;;4.00;3.27;;;12.50;99.90;;;;;;4962560;28;20402;-72
2022/11/05 12:34:02;;;;;;;3.07;2.77;;;12.50;99.90;;;;;;4977123;28;20424;-73
2022/11/05 12:36:50;;;;;;;4.93;3.03;;;12.50;99.90;;;;;;4962566;28;20443;-72
2022/11/05 12:39:41;;;;;;;4.37;3.00;;;12.50;99.90;;;;;;4993660;28;20502;-73
2022/11/05 12:42:12;;;;;;;5.53;2.80;;;12.50;99.90;;;;;;5015373;28;20451;-72
2022/11/05 12:44:54;;;;;;;5.00;3.20;;;12.50;99.90;;;;;;4978314;28;20412;-72
2022/11/05 12:47:37;;;;;;;4.67;2.63;;;12.60;99.90;;;;;;4965315;28;20898;-73
2022/11/05 12:50:19;;;;;;;6.20;2.90;;;12.60;99.90;;;;;;4997723;28;20448;-73
2022/11/05 12:52:46;;;;;;;3.40;2.90;;;12.60;99.90;;;;;;4997382;28;20440;-72
2022/11/05 12:55:23;;;;;;;6.97;2.93;;;12.60;99.90;;;;;;4997512;28;20428;-72
2022/11/05 12:58:07;;;;;;;4.43;2.80;;;12.60;99.90;;;;;;4989535;28;20468;-72
2022/11/05 13:00:38;;;;;;;4.50;2.80;;;12.60;99.90;;;;;;4997396;28;20461;-73
2022/11/05 13:03:43;;;;;;;4.93;2.70;;;12.60;99.90;;;;;;4982451;28;20783;-72
2022/11/05 13:06:20;;;;;;;3.70;2.40;;;12.70;99.90;;;;;;4978921;28;20400;-73
2022/11/05 13:09:12;;;;;;;5.77;2.63;;;12.70;99.90;;;;;;4995285;28;20520;-73
2022/11/05 13:11:51;;;;;;;4.63;2.50;;;12.70;99.90;;;;;;4965145;28;20433;-72
2022/11/05 13:14:27;;;;;;;3.67;2.47;;;12.60;99.90;;;;;;4997054;28;20435;-73
2022/11/05 13:17:08;;;;;;;4.23;2.57;;;12.70;99.90;;;;;;4990890;28;20431;-73
2022/11/05 13:20:13;;;;;;;4.10;2.63;;;12.70;99.90;;;;;;4994887;28;20562;-73
2022/11/05 13:22:41;;;;;;;5.80;3.13;;;12.70;99.90;;;;;;4972885;28;20460;-73
2022/11/05 13:25:26;;;;;;;6.60;2.80;;;12.70;99.90;;;;;;4997237;28;20429;-72
2022/11/05 13:28:17;;;;;;;4.30;2.87;;;12.70;99.90;;;;;;4982511;28;20534;-72
2022/11/05 13:30:47;;;;;;;4.03;2.77;;;12.70;99.90;;;;;;4980272;28;20440;-72
2022/11/05 13:33:35;;;;;;;2.07;1.87;;;12.70;99.90;;;;;;4962341;28;20448;-72
2022/11/05 13:38:59;;;;;;;4.47;2.47;;;12.70;99.90;;;;;;5014176;28;20446;-73
2022/11/05 13:41:32;;;;;;;6.33;2.63;;;12.70;99.90;;;;;;5002644;28;20434;-73
2022/11/05 13:44:15;;;;;;;4.03;2.87;;;12.70;99.90;;;;;;4994828;28;20997;-73
2022/11/05 13:47:05;;;;;;;4.40;2.40;;;12.70;99.90;;;;;;4994064;28;20459;-73
2022/11/05 13:49:52;;;;;;;5.83;2.30;;;12.70;99.90;;;;;;4961030;28;20449;-73
2022/11/05 13:52:43;;;;;;;3.20;2.40;;;12.80;99.90;;;;;;4995954;28;20422;-72
2022/11/05 13:55:15;;;;;;;6.57;2.57;;;12.80;99.90;;;;;;4994540;28;20491;-73
2022/11/05 13:57:44;;;;;;;4.30;2.50;;;12.80;99.90;;;;;;4976811;28;21003;-73
2022/11/05 14:00:20;;;;;;;5.47;2.03;;;12.80;99.90;;;;;;4983784;28;21002;-73
2022/11/05 14:02:58;;;;;;;5.30;2.53;;;12.80;99.90;;;;;;5009663;28;20470;-73